Time;durP1;ratioP1;P1;durP2;ratioP2;P2;SDS_P1;SDS_P2;PMS_P1;PMS_P2;Temp;Humidity;BMP_temperature;BMP_pressure;BME280_temperature;BME280_humidity;BME280_pressure;Samples;Min_cycle;Max_cycle;Signal;HPM_P1;HPM_P2
2023/02/14 00:01:13;;;;;;;4.35;3.30;;;;;;;;;;5033756;28;20203;-83
2023/02/14 00:03:41;;;;;;;4.65;3.53;;;;;;;;;;5050790;28;20300;-83
2023/02/14 00:06:10;;;;;;;4.32;3.92;;;;;;;;;;5054004;28;20289;-83
2023/02/14 00:08:39;;;;;;;3.78;3.47;;;;;;;;;;5061714;28;20277;-84
2023/02/14 00:11:08;;;;;;;5.03;4.50;;;;;;;;;;5062819;28;20206;-84
2023/02/14 00:13:36;;;;;;;4.35;3.95;;;;;;;;;;5062126;28;20210;-84
2023/02/14 00:16:04;;;;;;;4.28;3.88;;;;;;;;;;5059285;28;20639;-83
2023/02/14 00:21:13;;;;;;;5.40;4.72;;;;;;;;;;5071103;28;20199;-83
2023/02/14 00:23:40;;;;;;;5.05;4.55;;;;;;;;;;5073615;28;20198;-84
2023/02/14 00:26:14;;;;;;;4.75;3.83;;;;;;;;;;5073838;28;20218;-85
2023/02/14 00:28:41;;;;;;;4.07;3.67;;;;;;;;;;5072884;28;20279;-84
2023/02/14 00:31:10;;;;;;;5.05;3.42;;;;;;;;;;5073351;28;20198;-85
2023/02/14 00:33:38;;;;;;;4.30;3.55;;;;;;;;;;5063241;28;20210;-85
2023/02/14 00:36:07;;;;;;;3.58;3.28;;;;;;;;;;5060085;28;20284;-85
2023/02/14 00:38:35;;;;;;;4.85;3.88;;;;;;;;;;5057685;28;20229;-84
2023/02/14 00:41:03;;;;;;;5.05;3.03;;;;;;;;;;5057908;28;20284;-84
2023/02/14 00:43:31;;;;;;;3.67;3.35;;;;;;;;;;5057193;28;20237;-84
2023/02/14 00:45:58;;;;;;;3.53;3.00;;;;;;;;;;5056478;28;20281;-84
2023/02/14 00:48:27;;;;;;;3.95;3.20;;;;;;;;;;5056353;28;20638;-84
2023/02/14 00:50:55;;;;;;;3.05;2.78;;;;;;;;;;5055888;28;20208;-84
2023/02/14 00:53:22;;;;;;;2.65;2.45;;;;;;;;;;5054982;28;20647;-84
2023/02/14 00:55:50;;;;;;;4.30;2.80;;;;;;;;;;5053741;28;20212;-82
2023/02/14 00:58:17;;;;;;;3.45;3.15;;;;;;;;;;5051957;28;20679;-83
2023/02/14 01:00:45;;;;;;;2.95;2.75;;;;;;;;;;5139362;22;20226;-80
2023/02/14 01:03:12;;;;;;;2.85;2.65;;;;;;;;;;5131872;28;20234;-80
2023/02/14 01:05:41;;;;;;;4.30;3.90;;;;;;;;;;5131695;28;20678;-80
2023/02/14 01:08:09;;;;;;;3.50;3.03;;;;;;;;;;5131178;28;20282;-79
2023/02/14 01:10:37;;;;;;;3.47;3.10;;;;;;;;;;5131850;28;20309;-80
2023/02/14 01:13:05;;;;;;;3.67;3.22;;;;;;;;;;5131825;28;20203;-79
2023/02/14 01:15:33;;;;;;;3.40;3.10;;;;;;;;;;5131392;28;20208;-80
2023/02/14 01:18:01;;;;;;;3.65;2.90;;;;;;;;;;5131114;28;20294;-80
2023/02/14 01:20:28;;;;;;;3.47;3.20;;;;;;;;;;5131563;28;20227;-79
2023/02/14 01:22:57;;;;;;;5.82;3.63;;;;;;;;;;5131562;27;20209;-80
2023/02/14 01:25:24;;;;;;;4.35;3.95;;;;;;;;;;5134731;27;20205;-79
2023/02/14 01:27:52;;;;;;;5.38;4.75;;;;;;;;;;5144072;27;20205;-80
2023/02/14 01:30:20;;;;;;;4.63;3.90;;;;;;;;;;5142831;27;20588;-79
2023/02/14 01:32:47;;;;;;;4.40;3.97;;;;;;;;;;5127799;27;20207;-81
2023/02/14 01:35:15;;;;;;;4.53;4.05;;;;;;;;;;5116864;28;20219;-81
2023/02/14 01:37:42;;;;;;;4.03;3.63;;;;;;;;;;5116564;28;20671;-81
2023/02/14 01:40:13;;;;;;;3.13;2.90;;;;;;;;;;5115984;28;20231;-80
2023/02/14 01:42:41;;;;;;;3.50;3.15;;;;;;;;;;5116224;28;20203;-81
2023/02/14 01:45:15;;;;;;;4.10;3.80;;;;;;;;;;5116840;28;20200;-82
2023/02/14 01:47:44;;;;;;;4.28;3.60;;;;;;;;;;5116546;28;20196;-82
2023/02/14 01:50:17;;;;;;;3.05;2.75;;;;;;;;;;5115550;28;20876;-80
2023/02/14 01:52:47;;;;;;;2.60;2.40;;;;;;;;;;5116617;28;20203;-81
2023/02/14 01:55:19;;;;;;;3.33;3.03;;;;;;;;;;5115741;28;20556;-80
2023/02/14 01:57:50;;;;;;;3.45;2.65;;;;;;;;;;5115864;28;20602;-80
2023/02/14 02:03:05;;;;;;;8.35;5.85;;;;;;;;;;5115984;28;20300;-79
2023/02/14 02:05:33;;;;;;;6.38;5.43;;;;;;;;;;5115231;28;20199;-79
2023/02/14 02:08:01;;;;;;;6.35;5.75;;;;;;;;;;5115001;28;20290;-81
2023/02/14 02:10:30;;;;;;;5.18;4.55;;;;;;;;;;5115691;28;20215;-80
2023/02/14 02:13:02;;;;;;;4.63;3.83;;;;;;;;;;5115591;28;20698;-80
2023/02/14 02:15:32;;;;;;;5.00;3.85;;;;;;;;;;5115582;28;20280;-80
2023/02/14 02:18:06;;;;;;;4.20;3.85;;;;;;;;;;5114518;28;20671;-80
2023/02/14 02:21:25;;;;;;;4.40;4.00;;;;;;;;;;5114891;28;20226;-81
2023/02/14 02:24:24;;;;;;;3.17;2.88;;;;;;;;;;5090846;28;20573;-80
2023/02/14 02:27:38;;;;;;;5.32;4.43;;;;;;;;;;5119362;28;20196;-81
2023/02/14 02:30:57;;;;;;;3.38;3.05;;;;;;;;;;5118813;28;20219;-81
2023/02/14 02:34:13;;;;;;;2.85;2.65;;;;;;;;;;5119231;28;20207;-81
2023/02/14 02:36:56;;;;;;;2.28;2.08;;;;;;;;;;5118354;28;20283;-81
2023/02/14 02:39:40;;;;;;;1.88;1.77;;;;;;;;;;5118596;28;20237;-81
2023/02/14 02:42:17;;;;;;;1.92;1.70;;;;;;;;;;5117306;28;20215;-81
2023/02/14 02:44:50;;;;;;;1.60;1.50;;;;;;;;;;5115703;28;20231;-81
2023/02/14 02:47:26;;;;;;;1.63;1.52;;;;;;;;;;5115273;28;20209;-81
2023/02/14 02:53:04;;;;;;;1.50;1.40;;;;;;;;;;5115541;28;20276;-81
2023/02/14 02:58:30;;;;;;;1.52;1.40;;;;;;;;;;5114934;28;20203;-81
2023/02/14 03:00:59;;;;;;;1.50;1.40;;;;;;;;;;5114752;28;20304;-81
2023/02/14 03:06:12;;;;;;;1.50;1.40;;;;;;;;;;5115117;28;20574;-82
2023/02/14 03:08:41;;;;;;;1.40;1.30;;;;;;;;;;5114676;28;20205;-81
2023/02/14 03:11:09;;;;;;;1.10;1.10;;;;;;;;;;5115688;28;20233;-81
2023/02/14 03:14:14;;;;;;;1.90;1.80;;;;;;;;;;5115712;28;20195;-81
2023/02/14 03:16:56;;;;;;;1.50;1.40;;;;;;;;;;5071630;28;20197;-81
2023/02/14 03:22:48;;;;;;;1.75;1.65;;;;;;;;;;5114651;28;20202;-81
2023/02/14 03:25:37;;;;;;;1.50;1.40;;;;;;;;;;5115054;28;20199;-80
2023/02/14 03:28:14;;;;;;;1.33;1.30;;;;;;;;;;5113784;28;20248;-79
2023/02/14 03:30:49;;;;;;;2.28;2.08;;;;;;;;;;5114326;28;20234;-79
2023/02/14 03:33:21;;;;;;;2.47;2.20;;;;;;;;;;5114697;27;20210;-80
2023/02/14 03:35:55;;;;;;;2.20;2.10;;;;;;;;;;5114296;28;20208;-80
2023/02/14 03:38:27;;;;;;;2.60;2.40;;;;;;;;;;5113508;28;20213;-80
2023/02/14 03:40:58;;;;;;;2.28;2.17;;;;;;;;;;5113962;28;20215;-80
2023/02/14 03:43:29;;;;;;;2.08;1.98;;;;;;;;;;5113863;28;20203;-81
2023/02/14 03:46:02;;;;;;;3.00;2.78;;;;;;;;;;5114356;28;20198;-81
2023/02/14 03:48:29;;;;;;;2.92;2.72;;;;;;;;;;5112777;28;20207;-81
2023/02/14 03:50:57;;;;;;;3.03;2.78;;;;;;;;;;5113424;28;20249;-81
2023/02/14 03:53:30;;;;;;;5.28;3.40;;;;;;;;;;5113559;28;20207;-79
2023/02/14 03:56:03;;;;;;;3.03;2.78;;;;;;;;;;5113400;28;20210;-80
2023/02/14 03:58:34;;;;;;;2.80;2.60;;;;;;;;;;5112819;28;20678;-79
2023/02/14 04:01:06;;;;;;;3.35;3.08;;;;;;;;;;5113267;28;20223;-80
2023/02/14 04:03:34;;;;;;;2.55;2.35;;;;;;;;;;5113340;28;20199;-81
2023/02/14 04:06:01;;;;;;;1.92;1.83;;;;;;;;;;5113387;28;20207;-80
2023/02/14 04:08:30;;;;;;;2.10;2.00;;;;;;;;;;5112748;28;20196;-80
2023/02/14 04:11:01;;;;;;;2.63;2.42;;;;;;;;;;5113362;28;20234;-80
2023/02/14 04:13:29;;;;;;;2.20;2.00;;;;;;;;;;5113399;28;20247;-80
2023/02/14 04:15:57;;;;;;;2.00;1.90;;;;;;;;;;5113127;28;20196;-81
2023/02/14 04:21:09;;;;;;;2.35;2.15;;;;;;;;;;5112976;28;20281;-81
2023/02/14 04:23:37;;;;;;;2.15;2.05;;;;;;;;;;5113409;28;20202;-80
2023/02/14 04:26:06;;;;;;;2.28;2.08;;;;;;;;;;5112748;28;20291;-81
2023/02/14 04:28:34;;;;;;;1.88;1.77;;;;;;;;;;5111959;28;20524;-79
2023/02/14 04:31:02;;;;;;;1.80;1.70;;;;;;;;;;5112866;28;20240;-81
2023/02/14 04:33:30;;;;;;;2.08;1.95;;;;;;;;;;5112092;28;20203;-81
2023/02/14 04:35:57;;;;;;;2.00;1.90;;;;;;;;;;5112898;28;20201;-80
2023/02/14 04:38:25;;;;;;;2.30;2.10;;;;;;;;;;5124366;27;20289;-81
2023/02/14 04:40:53;;;;;;;2.47;2.28;;;;;;;;;;5131258;27;20874;-80
2023/02/14 04:43:21;;;;;;;2.22;2.13;;;;;;;;;;5132832;27;20203;-80
2023/02/14 04:45:49;;;;;;;2.38;2.17;;;;;;;;;;5137780;27;20225;-79
2023/02/14 04:48:16;;;;;;;2.92;2.65;;;;;;;;;;5137985;27;20202;-80
2023/02/14 04:50:44;;;;;;;3.58;3.28;;;;;;;;;;5133625;27;20298;-81
2023/02/14 04:53:11;;;;;;;3.42;3.13;;;;;;;;;;5133497;27;20202;-81
2023/02/14 04:55:39;;;;;;;3.10;2.80;;;;;;;;;;5133336;27;20323;-80
2023/02/14 04:58:06;;;;;;;3.58;3.28;;;;;;;;;;5132646;27;20753;-80
2023/02/14 05:00:35;;;;;;;3.38;3.08;;;;;;;;;;5133061;27;20313;-80
2023/02/14 05:03:02;;;;;;;3.05;2.53;;;;;;;;;;5132622;28;20289;-81
2023/02/14 05:05:30;;;;;;;2.33;2.13;;;;;;;;;;5132666;28;20197;-81
2023/02/14 05:07:57;;;;;;;2.30;2.20;;;;;;;;;;5132966;28;20202;-81
2023/02/14 05:10:25;;;;;;;2.40;2.20;;;;;;;;;;5132994;28;20857;-79
2023/02/14 05:12:52;;;;;;;3.17;2.97;;;;;;;;;;5132761;28;20214;-80
2023/02/14 05:15:19;;;;;;;2.83;2.58;;;;;;;;;;5132546;28;20203;-80
2023/02/14 05:17:48;;;;;;;2.80;2.53;;;;;;;;;;5132271;28;20199;-80
2023/02/14 05:20:16;;;;;;;3.00;2.80;;;;;;;;;;5131860;28;20225;-80
2023/02/14 05:22:43;;;;;;;2.97;2.70;;;;;;;;;;5133880;28;20741;-80
2023/02/14 05:25:11;;;;;;;3.60;3.30;;;;;;;;;;5133509;28;20285;-80
2023/02/14 05:27:38;;;;;;;3.00;2.78;;;;;;;;;;5134438;28;20285;-81
2023/02/14 05:30:08;;;;;;;3.55;3.25;;;;;;;;;;5133165;28;20306;-80
2023/02/14 05:32:36;;;;;;;2.70;2.50;;;;;;;;;;5125321;28;20223;-81
2023/02/14 05:35:06;;;;;;;2.47;2.28;;;;;;;;;;5112016;28;20306;-80
2023/02/14 05:37:33;;;;;;;2.45;2.25;;;;;;;;;;5112571;28;20678;-80
2023/02/14 05:40:00;;;;;;;2.78;2.58;;;;;;;;;;5111438;28;20334;-80
2023/02/14 05:42:28;;;;;;;2.10;2.00;;;;;;;;;;5111723;28;20202;-80
2023/02/14 05:44:55;;;;;;;3.13;2.83;;;;;;;;;;5111918;28;20201;-80
2023/02/14 05:47:23;;;;;;;2.30;2.10;;;;;;;;;;5111961;28;20200;-79
2023/02/14 05:49:51;;;;;;;2.03;1.83;;;;;;;;;;5110971;28;20231;-80
2023/02/14 05:52:19;;;;;;;1.95;1.83;;;;;;;;;;5112343;28;20352;-80
2023/02/14 05:54:47;;;;;;;2.10;2.00;;;;;;;;;;5111894;28;20585;-80
2023/02/14 05:57:14;;;;;;;2.08;1.98;;;;;;;;;;5112058;28;20204;-80
2023/02/14 05:59:42;;;;;;;2.58;2.38;;;;;;;;;;5110790;28;20228;-81
2023/02/14 06:02:09;;;;;;;3.30;3.00;;;;;;;;;;5111667;28;20204;-80
2023/02/14 06:04:37;;;;;;;3.30;3.00;;;;;;;;;;5112311;28;20196;-80
2023/02/14 06:07:04;;;;;;;2.92;2.72;;;;;;;;;;5111906;28;20196;-80
2023/02/14 06:09:33;;;;;;;2.60;2.40;;;;;;;;;;5111354;28;20642;-80
2023/02/14 06:12:01;;;;;;;2.50;2.30;;;;;;;;;;5116287;28;20231;-79
2023/02/14 06:14:28;;;;;;;3.53;3.13;;;;;;;;;;5115735;28;20195;-80
2023/02/14 06:16:55;;;;;;;3.22;3.00;;;;;;;;;;5115206;28;20191;-80
2023/02/14 06:19:23;;;;;;;2.05;1.95;;;;;;;;;;5114315;28;20331;-80
2023/02/14 06:21:50;;;;;;;3.33;3.00;;;;;;;;;;5115422;28;20192;-80
2023/02/14 06:24:18;;;;;;;2.13;2.03;;;;;;;;;;5114915;27;20195;-79
2023/02/14 06:26:46;;;;;;;2.15;1.95;;;;;;;;;;5124341;27;20219;-80
2023/02/14 06:29:15;;;;;;;2.83;2.63;;;;;;;;;;5134638;27;20591;-79
2023/02/14 06:31:43;;;;;;;2.90;2.70;;;;;;;;;;5134473;27;20202;-79
2023/02/14 06:34:11;;;;;;;2.38;2.22;;;;;;;;;;5115240;28;20199;-80
2023/02/14 06:36:38;;;;;;;2.65;2.45;;;;;;;;;;5114788;28;20287;-79
2023/02/14 06:39:06;;;;;;;2.85;2.65;;;;;;;;;;5113986;28;20315;-80
2023/02/14 06:41:33;;;;;;;2.88;2.60;;;;;;;;;;5114664;28;20200;-80
2023/02/14 06:44:02;;;;;;;2.50;2.22;;;;;;;;;;5114372;28;20295;-79
2023/02/14 06:46:29;;;;;;;2.50;2.30;;;;;;;;;;5118752;27;20274;-81
2023/02/14 06:48:57;;;;;;;3.17;2.88;;;;;;;;;;5134923;27;20209;-80
2023/02/14 06:51:24;;;;;;;2.72;2.53;;;;;;;;;;5134288;27;20676;-80
2023/02/14 06:53:52;;;;;;;2.40;2.20;;;;;;;;;;5135661;27;20853;-80
2023/02/14 06:56:19;;;;;;;2.10;1.90;;;;;;;;;;5116226;27;20242;-80
2023/02/14 06:58:47;;;;;;;2.38;2.28;;;;;;;;;;5114660;28;20210;-80
2023/02/14 07:01:15;;;;;;;2.83;2.63;;;;;;;;;;5140107;22;20612;-86
2023/02/14 07:03:43;;;;;;;2.45;2.25;;;;;;;;;;5120315;28;20235;-86
2023/02/14 07:06:10;;;;;;;2.28;2.08;;;;;;;;;;5119880;28;20286;-84
2023/02/14 07:08:38;;;;;;;2.70;2.47;;;;;;;;;;5119613;28;20825;-85
2023/02/14 07:11:06;;;;;;;2.85;2.65;;;;;;;;;;5110443;28;20314;-84
2023/02/14 07:13:33;;;;;;;2.83;2.63;;;;;;;;;;5119038;28;20306;-85
2023/02/14 07:16:01;;;;;;;2.85;2.65;;;;;;;;;;5118616;28;20207;-85
2023/02/14 07:18:30;;;;;;;2.80;2.60;;;;;;;;;;5117535;28;20584;-84
2023/02/14 07:20:57;;;;;;;3.50;3.20;;;;;;;;;;5118640;28;20725;-84
2023/02/14 07:23:25;;;;;;;3.80;3.50;;;;;;;;;;5117299;28;20259;-85
2023/02/14 07:25:52;;;;;;;3.67;3.33;;;;;;;;;;5104081;28;20232;-86
2023/02/14 07:28:20;;;;;;;3.50;3.08;;;;;;;;;;5097132;28;20647;-85
2023/02/14 07:30:48;;;;;;;3.92;3.63;;;;;;;;;;5097250;28;20303;-86
2023/02/14 07:33:15;;;;;;;3.90;3.60;;;;;;;;;;5109960;28;20258;-85
2023/02/14 07:35:44;;;;;;;2.97;2.78;;;;;;;;;;5117249;28;20638;-85
2023/02/14 07:38:12;;;;;;;3.00;2.80;;;;;;;;;;5116713;28;20200;-86
2023/02/14 07:40:39;;;;;;;2.85;2.65;;;;;;;;;;5116071;28;20274;-84
2023/02/14 07:43:07;;;;;;;3.65;3.35;;;;;;;;;;5116721;28;20314;-85
2023/02/14 07:45:34;;;;;;;3.25;3.05;;;;;;;;;;5116514;28;20345;-85
2023/02/14 07:48:02;;;;;;;3.63;3.33;;;;;;;;;;5116058;28;20208;-85
2023/02/14 07:50:30;;;;;;;4.65;4.22;;;;;;;;;;5116785;28;20236;-83
2023/02/14 07:52:59;;;;;;;3.72;3.42;;;;;;;;;;5116665;28;20243;-84
2023/02/14 07:55:27;;;;;;;2.88;2.67;;;;;;;;;;5104799;28;20239;-85
2023/02/14 07:57:54;;;;;;;3.50;3.20;;;;;;;;;;5095447;28;20207;-85
2023/02/14 08:00:23;;;;;;;3.45;3.15;;;;;;;;;;5094868;28;20256;-86
2023/02/14 08:02:50;;;;;;;3.08;2.60;;;;;;;;;;5106096;28;20203;-85
2023/02/14 08:05:18;;;;;;;3.45;2.78;;;;;;;;;;5115720;28;20274;-85
2023/02/14 08:07:46;;;;;;;3.30;3.00;;;;;;;;;;5115997;28;20242;-85
2023/02/14 08:10:15;;;;;;;4.65;3.70;;;;;;;;;;5115168;28;20226;-86
2023/02/14 08:13:00;;;;;;;3.80;3.50;;;;;;;;;;5115732;28;20206;-84
2023/02/14 08:18:14;;;;;;;4.18;3.78;;;;;;;;;;5115324;28;20214;-87
2023/02/14 08:20:43;;;;;;;5.13;4.38;;;;;;;;;;5115506;28;20258;-86
2023/02/14 08:23:11;;;;;;;5.75;5.15;;;;;;;;;;5115736;28;20222;-87
2023/02/14 08:25:40;;;;;;;5.82;5.22;;;;;;;;;;5114708;28;20332;-85
2023/02/14 08:28:07;;;;;;;8.85;5.15;;;;;;;;;;5094214;28;20230;-86
2023/02/14 08:30:37;;;;;;;4.63;4.22;;;;;;;;;;5094158;28;20213;-86
2023/02/14 08:33:05;;;;;;;6.78;6.18;;;;;;;;;;5106528;28;20219;-87
2023/02/14 08:35:33;;;;;;;6.47;5.88;;;;;;;;;;5115468;28;20267;-85
2023/02/14 08:38:00;;;;;;;8.02;5.90;;;;;;;;;;5115234;28;20290;-87
2023/02/14 08:40:28;;;;;;;6.00;5.43;;;;;;;;;;5114925;28;20314;-85
2023/02/14 08:42:57;;;;;;;5.43;4.93;;;;;;;;;;5114165;28;20290;-87
2023/02/14 08:45:25;;;;;;;4.68;4.28;;;;;;;;;;5114088;28;20260;-85
2023/02/14 08:47:52;;;;;;;5.28;4.60;;;;;;;;;;5115249;28;20195;-85
2023/02/14 08:50:21;;;;;;;6.68;5.82;;;;;;;;;;5112656;28;20298;-85
2023/02/14 08:52:48;;;;;;;5.43;4.90;;;;;;;;;;5113942;28;20278;-85
2023/02/14 08:55:16;;;;;;;6.00;5.40;;;;;;;;;;5113387;28;20652;-84
2023/02/14 08:57:43;;;;;;;6.47;5.88;;;;;;;;;;5113395;28;20206;-84
2023/02/14 09:00:14;;;;;;;7.07;5.55;;;;;;;;;;5112498;28;20314;-83
2023/02/14 09:02:41;;;;;;;5.65;5.00;;;;;;;;;;5112944;28;20207;-85
2023/02/14 09:05:09;;;;;;;7.40;6.70;;;;;;;;;;5113067;28;20655;-82
2023/02/14 09:07:37;;;;;;;6.53;5.63;;;;;;;;;;5112366;28;20203;-83
2023/02/14 09:10:05;;;;;;;5.68;4.95;;;;;;;;;;5111316;28;20853;-84
2023/02/14 09:12:33;;;;;;;5.45;4.95;;;;;;;;;;5112359;28;20199;-81
2023/02/14 09:15:00;;;;;;;6.35;5.75;;;;;;;;;;5112153;28;20651;-84
2023/02/14 09:17:29;;;;;;;7.63;6.93;;;;;;;;;;5112735;28;20209;-84
2023/02/14 09:19:57;;;;;;;5.22;4.72;;;;;;;;;;5111783;28;20222;-83
2023/02/14 09:22:24;;;;;;;6.03;5.43;;;;;;;;;;5110679;28;20196;-84
2023/02/14 09:24:52;;;;;;;6.88;5.82;;;;;;;;;;5105069;28;20210;-83
2023/02/14 09:27:19;;;;;;;6.03;5.43;;;;;;;;;;5091554;28;20580;-84
2023/02/14 09:29:47;;;;;;;8.95;6.72;;;;;;;;;;5091094;28;20712;-83
2023/02/14 09:32:15;;;;;;;9.70;7.90;;;;;;;;;;5097106;28;20287;-84
2023/02/14 09:40:15;;;;;;;7.35;6.60;;;;;;;;;;5123175;28;20629;-84
2023/02/14 09:42:53;;;;;;;9.38;5.72;;;;;;;;;;5123896;28;20226;-84
2023/02/14 09:45:23;;;;;;;6.75;6.15;;;;;;;;;;5122220;28;20203;-85
2023/02/14 09:47:54;;;;;;;9.35;7.93;;;;;;;;;;5125329;28;20290;-84
2023/02/14 09:50:28;;;;;;;9.23;7.35;;;;;;;;;;5118859;28;20715;-83
2023/02/14 09:52:59;;;;;;;7.88;7.00;;;;;;;;;;5119442;28;20204;-85
2023/02/14 09:55:31;;;;;;;6.78;6.18;;;;;;;;;;5107061;28;20224;-85
2023/02/14 09:58:08;;;;;;;6.18;5.57;;;;;;;;;;5097347;28;20203;-85
2023/02/14 10:00:39;;;;;;;6.53;5.90;;;;;;;;;;5098094;28;20246;-85
2023/02/14 10:03:30;;;;;;;10.32;7.45;;;;;;;;;;5089783;28;20196;-85
2023/02/14 10:06:06;;;;;;;8.18;7.13;;;;;;;;;;5097090;28;20210;-85
2023/02/14 10:08:48;;;;;;;7.68;6.68;;;;;;;;;;5096417;28;20629;-84
2023/02/14 10:11:20;;;;;;;6.80;6.10;;;;;;;;;;5096378;28;20224;-85
2023/02/14 10:13:50;;;;;;;8.15;6.90;;;;;;;;;;5097056;28;20604;-84
2023/02/14 10:16:24;;;;;;;7.15;6.45;;;;;;;;;;5096451;28;20200;-84
2023/02/14 10:18:56;;;;;;;8.55;7.47;;;;;;;;;;5095871;28;20624;-85
2023/02/14 10:21:30;;;;;;;11.55;7.75;;;;;;;;;;5096805;28;20216;-85
2023/02/14 10:24:04;;;;;;;7.65;6.45;;;;;;;;;;5096548;28;20210;-85
2023/02/14 10:26:38;;;;;;;6.90;6.18;;;;;;;;;;5115930;28;20660;-84
2023/02/14 10:29:09;;;;;;;6.13;5.05;;;;;;;;;;5116136;28;20291;-84
2023/02/14 10:31:41;;;;;;;6.28;5.68;;;;;;;;;;5115683;28;20287;-84
2023/02/14 10:34:16;;;;;;;7.13;6.00;;;;;;;;;;5117289;28;20219;-84
2023/02/14 10:37:19;;;;;;;6.32;5.78;;;;;;;;;;5117972;28;20559;-84
2023/02/14 10:40:07;;;;;;;10.65;9.25;;;;;;;;;;5116321;28;20219;-85
2023/02/14 10:42:42;;;;;;;8.20;7.40;;;;;;;;;;5116439;28;20210;-85
2023/02/14 10:45:18;;;;;;;13.40;8.55;;;;;;;;;;5116134;28;20282;-85
2023/02/14 10:47:52;;;;;;;8.98;7.47;;;;;;;;;;5115942;28;20199;-84
2023/02/14 10:50:24;;;;;;;10.80;9.48;;;;;;;;;;5115732;28;20221;-84
2023/02/14 10:53:03;;;;;;;8.50;7.63;;;;;;;;;;5115939;28;20623;-84
2023/02/14 10:55:42;;;;;;;8.55;7.38;;;;;;;;;;5103251;28;20228;-84
2023/02/14 10:58:15;;;;;;;9.88;8.82;;;;;;;;;;5095030;28;20287;-84
2023/02/14 11:00:53;;;;;;;8.85;7.57;;;;;;;;;;5096060;28;20235;-85
2023/02/14 11:03:21;;;;;;;8.73;7.70;;;;;;;;;;5111649;28;20290;-84
2023/02/14 11:05:49;;;;;;;8.10;7.20;;;;;;;;;;5116681;28;20235;-85
2023/02/14 11:08:25;;;;;;;7.75;7.03;;;;;;;;;;5130844;28;20208;-83
2023/02/14 11:10:54;;;;;;;10.30;8.48;;;;;;;;;;5135035;28;20229;-83
2023/02/14 11:13:31;;;;;;;10.93;8.35;;;;;;;;;;5135174;28;20214;-84
2023/02/14 11:16:04;;;;;;;6.90;6.20;;;;;;;;;;5134774;28;20359;-84
2023/02/14 11:18:34;;;;;;;6.97;6.32;;;;;;;;;;5134221;28;20235;-84
2023/02/14 11:21:11;;;;;;;7.15;6.07;;;;;;;;;;5134190;28;20219;-83
2023/02/14 11:23:42;;;;;;;9.98;6.35;;;;;;;;;;5134924;28;20227;-84
2023/02/14 11:26:17;;;;;;;7.28;6.57;;;;;;;;;;5116780;28;20235;-83
2023/02/14 11:28:52;;;;;;;10.27;8.90;;;;;;;;;;5107713;28;20200;-85
2023/02/14 11:31:29;;;;;;;9.00;8.10;;;;;;;;;;5099827;28;20255;-86
2023/02/14 11:33:58;;;;;;;8.90;7.90;;;;;;;;;;5117732;28;20200;-85
2023/02/14 11:36:25;;;;;;;9.15;8.15;;;;;;;;;;5117673;28;20318;-86
2023/02/14 11:39:12;;;;;;;11.85;10.05;;;;;;;;;;5115509;28;20211;-85
2023/02/14 11:41:51;;;;;;;12.30;10.00;;;;;;;;;;5116301;28;20314;-86
2023/02/14 11:44:22;;;;;;;12.88;10.45;;;;;;;;;;5116021;28;20738;-86
2023/02/14 11:46:50;;;;;;;8.13;7.28;;;;;;;;;;5115788;28;20761;-85
2023/02/14 11:49:29;;;;;;;10.18;9.02;;;;;;;;;;5114934;28;20206;-86
2023/02/14 11:51:58;;;;;;;11.25;7.78;;;;;;;;;;5117106;28;20199;-84
2023/02/14 11:54:35;;;;;;;7.82;7.03;;;;;;;;;;5113010;28;20203;-84
2023/02/14 11:57:06;;;;;;;6.53;5.93;;;;;;;;;;5095944;28;20200;-85
2023/02/14 11:59:39;;;;;;;6.35;5.45;;;;;;;;;;5093469;28;20212;-87
2023/02/14 12:02:24;;;;;;;6.05;5.50;;;;;;;;;;5099624;28;20248;-86
2023/02/14 12:04:55;;;;;;;7.15;6.45;;;;;;;;;;5115558;28;20305;-85
2023/02/14 12:07:28;;;;;;;6.10;5.53;;;;;;;;;;5114697;28;20214;-85
2023/02/14 12:10:28;;;;;;;7.25;6.57;;;;;;;;;;5114524;28;20277;-82
2023/02/14 12:13:00;;;;;;;9.10;8.23;;;;;;;;;;5080617;28;20241;-83
2023/02/14 12:15:36;;;;;;;9.88;8.23;;;;;;;;;;5115332;28;20573;-85
2023/02/14 12:18:43;;;;;;;10.57;8.20;;;;;;;;;;5114517;28;20202;-83
2023/02/14 12:21:36;;;;;;;10.57;9.50;;;;;;;;;;5103534;28;20219;-84
2023/02/14 12:24:12;;;;;;;8.60;7.80;;;;;;;;;;5115102;28;20701;-85
2023/02/14 12:26:46;;;;;;;9.32;8.23;;;;;;;;;;5094092;28;20227;-85
2023/02/14 12:29:21;;;;;;;8.88;8.07;;;;;;;;;;5094137;28;20183;-86
2023/02/14 12:31:49;;;;;;;9.63;8.63;;;;;;;;;;5096074;28;20261;-85
2023/02/14 12:34:18;;;;;;;12.02;9.73;;;;;;;;;;5114088;28;20227;-84
2023/02/14 12:37:22;;;;;;;9.07;8.27;;;;;;;;;;5113569;28;20204;-85
2023/02/14 12:40:07;;;;;;;8.95;7.78;;;;;;;;;;5112824;28;20221;-84
2023/02/14 12:42:54;;;;;;;11.55;8.27;;;;;;;;;;5113893;28;20207;-84
2023/02/14 12:45:31;;;;;;;8.57;7.68;;;;;;;;;;5121399;28;20263;-84
2023/02/14 12:48:05;;;;;;;9.93;8.82;;;;;;;;;;5120477;28;20218;-85
2023/02/14 12:50:41;;;;;;;9.75;8.75;;;;;;;;;;5120163;28;20301;-85
2023/02/14 12:53:49;;;;;;;11.52;8.95;;;;;;;;;;5126171;28;20303;-84
2023/02/14 12:56:26;;;;;;;11.25;9.38;;;;;;;;;;5110009;28;20306;-85
2023/02/14 12:59:06;;;;;;;8.85;7.95;;;;;;;;;;5111348;28;20598;-85
2023/02/14 13:02:00;;;;;;;10.82;8.38;;;;;;;;;;5112242;28;20237;-85
2023/02/14 13:05:01;;;;;;;9.52;6.40;;;;;;;;;;5092216;28;20196;-85
2023/02/14 13:07:50;;;;;;;6.40;5.80;;;;;;;;;;5009801;28;20321;-86
2023/02/14 13:10:30;;;;;;;7.95;7.03;;;;;;;;;;5008622;28;20233;-85
2023/02/14 13:13:04;;;;;;;6.55;5.43;;;;;;;;;;5065450;28;20199;-85
2023/02/14 13:15:41;;;;;;;7.65;6.53;;;;;;;;;;5092062;28;20208;-86
2023/02/14 13:18:16;;;;;;;6.72;6.13;;;;;;;;;;5091749;28;20203;-86
2023/02/14 13:20:51;;;;;;;7.35;4.70;;;;;;;;;;5098510;28;20608;-86
2023/02/14 13:23:22;;;;;;;5.70;5.20;;;;;;;;;;5097249;28;20203;-86
2023/02/14 13:25:56;;;;;;;6.50;5.90;;;;;;;;;;5109916;28;20242;-86
2023/02/14 13:28:24;;;;;;;5.75;5.05;;;;;;;;;;5116302;28;20612;-85
2023/02/14 13:30:54;;;;;;;6.18;5.45;;;;;;;;;;5116452;28;20246;-85
2023/02/14 13:33:28;;;;;;;6.85;6.15;;;;;;;;;;5116586;28;20206;-85
2023/02/14 13:35:59;;;;;;;6.75;6.15;;;;;;;;;;5116401;28;20734;-85
2023/02/14 13:38:27;;;;;;;5.97;5.38;;;;;;;;;;5115870;28;20267;-85
2023/02/14 13:40:56;;;;;;;6.07;5.47;;;;;;;;;;5116236;28;20656;-86
2023/02/14 13:43:50;;;;;;;7.05;6.35;;;;;;;;;;5116014;28;20283;-86
2023/02/14 13:46:21;;;;;;;6.82;5.65;;;;;;;;;;5116121;28;20296;-85
2023/02/14 13:49:04;;;;;;;7.75;6.00;;;;;;;;;;5115384;28;20203;-86
2023/02/14 13:51:46;;;;;;;6.38;5.75;;;;;;;;;;5117034;22;20226;-86
2023/02/14 13:54:34;;;;;;;8.25;7.00;;;;;;;;;;5116779;28;20575;-87
2023/02/14 13:57:04;;;;;;;5.63;5.05;;;;;;;;;;5116931;28;20220;-87
2023/02/14 13:59:33;;;;;;;8.50;5.20;;;;;;;;;;5116870;28;20275;-87
2023/02/14 14:02:41;;;;;;;6.72;5.43;;;;;;;;;;5116537;28;20194;-87
2023/02/14 14:05:48;;;;;;;8.13;6.63;;;;;;;;;;5116845;28;20191;-87
2023/02/14 14:08:39;;;;;;;6.97;5.45;;;;;;;;;;5116404;28;20228;-87
2023/02/14 14:11:13;;;;;;;6.25;5.43;;;;;;;;;;5116276;28;20183;-87
2023/02/14 14:13:58;;;;;;;6.60;5.90;;;;;;;;;;5115737;28;20279;-87
2023/02/14 14:16:32;;;;;;;7.28;6.28;;;;;;;;;;5116505;28;20235;-86
2023/02/14 14:19:03;;;;;;;7.80;6.82;;;;;;;;;;5116386;28;20212;-88
2023/02/14 14:21:32;;;;;;;8.45;7.65;;;;;;;;;;5116136;28;20191;-87
2023/02/14 14:24:18;;;;;;;9.35;7.40;;;;;;;;;;5115943;28;20590;-87
2023/02/14 14:26:47;;;;;;;8.95;7.93;;;;;;;;;;5115300;28;20286;-87
2023/02/14 14:29:20;;;;;;;8.40;6.35;;;;;;;;;;5115450;28;20736;-87
2023/02/14 14:31:54;;;;;;;9.70;8.68;;;;;;;;;;5114624;28;20237;-87
2023/02/14 14:34:26;;;;;;;9.18;7.55;;;;;;;;;;5115588;28;20785;-87
2023/02/14 14:37:03;;;;;;;7.32;5.95;;;;;;;;;;5115441;28;20649;-87
2023/02/14 14:39:32;;;;;;;7.40;6.50;;;;;;;;;;5115670;28;20266;-87
2023/02/14 14:42:08;;;;;;;7.47;6.78;;;;;;;;;;5115834;28;20294;-89
2023/02/14 14:44:36;;;;;;;8.77;7.80;;;;;;;;;;5115726;28;20187;-87
2023/02/14 14:47:03;;;;;;;9.25;8.35;;;;;;;;;;5115465;28;20234;-87
2023/02/14 14:49:33;;;;;;;12.13;8.77;;;;;;;;;;5115434;28;20294;-87
2023/02/14 14:52:00;;;;;;;8.25;7.38;;;;;;;;;;5115434;28;20211;-88
2023/02/14 14:54:31;;;;;;;9.52;8.07;;;;;;;;;;5096851;28;20241;-87
2023/02/14 14:57:01;;;;;;;9.88;8.48;;;;;;;;;;5115263;28;20684;-88
2023/02/14 14:59:33;;;;;;;9.52;7.95;;;;;;;;;;5115529;28;20680;-87
2023/02/14 15:02:01;;;;;;;8.38;6.80;;;;;;;;;;5115023;28;20184;-88
2023/02/14 15:04:32;;;;;;;7.18;6.50;;;;;;;;;;5115284;28;20278;-87
2023/02/14 15:07:24;;;;;;;7.60;6.82;;;;;;;;;;5115048;28;20749;-87
2023/02/14 15:09:51;;;;;;;6.43;5.72;;;;;;;;;;5115422;28;20211;-87
2023/02/14 15:15:10;;;;;;;5.20;4.70;;;;;;;;;;5114969;28;20186;-87
2023/02/14 15:17:38;;;;;;;5.50;4.95;;;;;;;;;;5115132;28;20219;-87
2023/02/14 15:20:10;;;;;;;5.20;4.70;;;;;;;;;;5114946;28;20223;-87
2023/02/14 15:22:44;;;;;;;5.63;5.13;;;;;;;;;;5114931;28;20275;-87
2023/02/14 15:25:16;;;;;;;6.32;5.70;;;;;;;;;;5114816;28;20196;-87
2023/02/14 15:27:44;;;;;;;9.02;6.05;;;;;;;;;;5114529;28;20234;-88
2023/02/14 15:30:25;;;;;;;7.43;6.47;;;;;;;;;;5114630;28;20720;-88
2023/02/14 15:32:54;;;;;;;8.68;7.20;;;;;;;;;;5114718;28;20208;-87
2023/02/14 15:35:26;;;;;;;9.07;7.10;;;;;;;;;;5114728;28;20200;-88
2023/02/14 15:37:54;;;;;;;9.38;7.70;;;;;;;;;;5114606;28;20223;-87
2023/02/14 15:40:25;;;;;;;9.13;7.43;;;;;;;;;;5114407;28;20724;-88
2023/02/14 15:42:55;;;;;;;8.55;7.40;;;;;;;;;;5114248;28;20219;-88
2023/02/14 15:45:30;;;;;;;8.00;7.18;;;;;;;;;;5114407;28;20203;-87